Time;durP1;ratioP1;P1;durP2;ratioP2;P2;SDS_P1;SDS_P2;PMS_P1;PMS_P2;Temp;Humidity;BMP_temperature;BMP_pressure;BME280_temperature;BME280_humidity;BME280_pressure;Samples;Min_cycle;Max_cycle;Signal;HPM_P1;HPM_P2
2022/03/05 00:00:38;;;;;;;;;;;24.10;99.90;;;;;;5014600;28;19917;-73
2022/03/05 00:03:05;;;;;;;;;;;24.20;99.90;;;;;;5014391;28;20386;-73
2022/03/05 00:05:32;;;;;;;;;;;24.20;99.90;;;;;;5013962;28;19960;-74
2022/03/05 00:07:59;;;;;;;;;;;24.20;99.90;;;;;;5014168;28;20376;-74
2022/03/05 00:10:25;;;;;;;;;;;24.20;99.90;;;;;;5014239;28;19909;-74
2022/03/05 00:12:52;;;;;;;;;;;24.40;99.90;;;;;;5013267;28;20012;-74
2022/03/05 00:15:20;;;;;;;;;;;24.60;99.90;;;;;;5014208;28;19917;-74
2022/03/05 00:17:47;;;;;;;;;;;24.70;99.90;;;;;;5013769;28;19909;-73
2022/03/05 00:20:13;;;;;;;;;;;24.80;99.90;;;;;;5013924;28;19913;-75
2022/03/05 00:22:40;;;;;;;;;;;24.80;99.90;;;;;;5013873;28;19916;-73
2022/03/05 00:25:07;;;;;;;;;;;24.90;99.90;;;;;;5013923;28;20084;-74
2022/03/05 00:27:34;;;;;;;;;;;24.90;99.90;;;;;;5013594;28;19918;-73
2022/03/05 00:30:01;;;;;;;;;;;24.80;99.90;;;;;;5013719;28;20318;-73
2022/03/05 00:32:27;;;;;;;;;;;24.90;99.90;;;;;;5013790;28;19910;-74
2022/03/05 00:34:54;;;;;;;;;;;24.90;99.90;;;;;;5014079;28;20411;-74
2022/03/05 00:37:20;;;;;;;;;;;24.90;99.90;;;;;;5013706;28;19996;-74
2022/03/05 00:39:47;;;;;;;;;;;24.90;99.90;;;;;;5013653;28;19913;-74
2022/03/05 00:42:14;;;;;;;;;;;24.90;99.90;;;;;;5013827;28;19910;-74
2022/03/05 00:44:41;;;;;;;;;;;25.00;99.90;;;;;;5013262;28;20382;-74
2022/03/05 00:47:07;;;;;;;;;;;25.10;99.90;;;;;;5013609;28;19918;-74
2022/03/05 00:49:34;;;;;;;;;;;25.10;99.90;;;;;;5013423;28;20450;-74
2022/03/05 00:52:01;;;;;;;;;;;25.10;99.90;;;;;;5013513;28;19952;-73
2022/03/05 00:54:28;;;;;;;;;;;25.10;99.90;;;;;;5013391;28;20000;-73
2022/03/05 00:56:54;;;;;;;;;;;25.10;99.90;;;;;;5013725;28;19910;-73
2022/03/05 00:59:21;;;;;;;;;;;25.10;99.90;;;;;;5013514;28;20052;-73
2022/03/05 01:01:47;;;;;;;;;;;25.10;99.90;;;;;;5013219;28;19949;-74
2022/03/05 01:04:14;;;;;;;;;;;25.10;99.90;;;;;;5013362;28;19909;-74
2022/03/05 01:06:41;;;;;;;;;;;25.00;99.90;;;;;;5013088;28;20371;-74
2022/03/05 01:09:07;;;;;;;;;;;25.10;99.90;;;;;;5013028;28;19909;-74
2022/03/05 01:11:34;;;;;;;;;;;25.00;99.90;;;;;;5013029;28;19916;-74
2022/03/05 01:14:01;;;;;;;;;;;24.90;99.90;;;;;;5013321;28;19909;-74
2022/03/05 01:16:28;;;;;;;;;;;24.90;99.90;;;;;;5012762;28;19910;-74
2022/03/05 01:18:54;;;;;;;;;;;24.90;99.90;;;;;;5013238;28;19944;-74
2022/03/05 01:21:21;;;;;;;;;;;24.90;99.90;;;;;;5013115;28;20331;-74
2022/03/05 01:23:48;;;;;;;;;;;24.90;99.90;;;;;;5011661;28;19921;-75
2022/03/05 01:26:14;;;;;;;;;;;25.00;99.90;;;;;;5011171;28;19956;-74
2022/03/05 01:28:41;;;;;;;;;;;25.00;99.90;;;;;;5012904;28;19918;-73
2022/03/05 01:31:07;;;;;;;;;;;24.90;99.90;;;;;;5012400;28;19920;-74
2022/03/05 01:33:34;;;;;;;;;;;24.90;99.90;;;;;;5012706;28;20307;-74
2022/03/05 01:36:01;;;;;;;;;;;25.00;99.90;;;;;;5012144;28;20359;-74
2022/03/05 01:38:27;;;;;;;;;;;25.10;99.90;;;;;;5012334;28;20012;-73
2022/03/05 01:40:54;;;;;;;;;;;25.10;99.90;;;;;;5012084;28;19910;-74
2022/03/05 01:43:21;;;;;;;;;;;25.10;99.90;;;;;;5012230;28;19909;-74
2022/03/05 01:45:47;;;;;;;;;;;25.20;99.90;;;;;;5011790;28;20326;-74
2022/03/05 01:48:14;;;;;;;;;;;25.30;99.90;;;;;;5011391;28;19909;-73
2022/03/05 01:50:41;;;;;;;;;;;25.30;99.90;;;;;;5010665;28;19914;-73
2022/03/05 01:53:07;;;;;;;;;;;25.40;99.90;;;;;;5010481;28;19924;-72
2022/03/05 01:55:34;;;;;;;;;;;25.50;99.90;;;;;;5010582;28;19956;-73
2022/03/05 01:58:01;;;;;;;;;;;25.50;99.90;;;;;;5015015;28;20364;-73
2022/03/05 02:00:27;;;;;;;;;;;25.50;99.90;;;;;;5016969;28;19909;-73
2022/03/05 02:02:54;;;;;;;;;;;25.50;99.90;;;;;;5016544;28;20394;-73
2022/03/05 02:05:21;;;;;;;;;;;25.50;99.90;;;;;;5016736;28;19909;-74
2022/03/05 02:07:47;;;;;;;;;;;25.40;99.90;;;;;;5016215;28;20291;-73
2022/03/05 02:10:14;;;;;;;;;;;25.30;99.90;;;;;;5016523;28;19956;-74
2022/03/05 02:12:41;;;;;;;;;;;25.20;99.90;;;;;;5016361;28;20008;-73
2022/03/05 02:15:09;;;;;;;;;;;25.20;99.90;;;;;;5016439;28;19914;-73
2022/03/05 02:17:36;;;;;;;;;;;25.20;99.90;;;;;;5016203;28;19936;-73
2022/03/05 02:20:03;;;;;;;;;;;25.20;99.90;;;;;;5016552;28;20016;-73
2022/03/05 02:22:30;;;;;;;;;;;25.20;99.90;;;;;;5016175;28;19913;-74
2022/03/05 02:25:02;;;;;;;;;;;25.20;99.90;;;;;;5016501;28;19931;-73
2022/03/05 02:27:29;;;;;;;;;;;25.20;99.90;;;;;;5016275;28;19921;-74
2022/03/05 02:29:56;;;;;;;;;;;25.30;99.90;;;;;;5015983;28;20349;-73
2022/03/05 02:32:23;;;;;;;;;;;25.30;99.90;;;;;;5016364;28;19910;-72
2022/03/05 02:34:50;;;;;;;;;;;25.30;99.90;;;;;;5016181;28;19916;-71
2022/03/05 02:37:17;;;;;;;;;;;25.30;99.90;;;;;;5015873;28;20004;-74
2022/03/05 02:39:44;;;;;;;;;;;25.30;99.90;;;;;;5015596;28;19909;-72
2022/03/05 02:42:13;;;;;;;;;;;25.30;99.90;;;;;;5015944;28;20011;-73
2022/03/05 02:44:40;;;;;;;;;;;25.30;99.90;;;;;;5016048;28;19914;-73
2022/03/05 02:47:07;;;;;;;;;;;25.40;99.90;;;;;;5015543;28;19960;-75
2022/03/05 02:49:33;;;;;;;;;;;25.50;99.90;;;;;;5015495;28;19936;-73
2022/03/05 02:52:00;;;;;;;;;;;25.50;99.90;;;;;;5015775;28;20437;-73
2022/03/05 02:54:27;;;;;;;;;;;25.30;99.90;;;;;;5015961;28;20757;-74
2022/03/05 02:56:53;;;;;;;;;;;25.30;99.90;;;;;;5015825;28;19999;-73
2022/03/05 02:59:20;;;;;;;;;;;25.20;99.90;;;;;;5015610;28;19921;-73
2022/03/05 03:01:47;;;;;;;;;;;25.20;99.90;;;;;;5015307;28;19916;-73
2022/03/05 03:04:13;;;;;;;;;;;25.30;99.90;;;;;;5015752;28;19918;-73
2022/03/05 03:06:40;;;;;;;;;;;25.50;99.90;;;;;;5015356;28;19996;-73
2022/03/05 03:09:07;;;;;;;;;;;25.60;99.90;;;;;;5014887;28;19918;-73
2022/03/05 03:11:33;;;;;;;;;;;25.70;99.90;;;;;;5014236;28;20376;-73
2022/03/05 03:14:00;;;;;;;;;;;25.90;99.90;;;;;;5015415;28;20024;-74
2022/03/05 03:16:29;;;;;;;;;;;25.70;99.90;;;;;;5015407;28;19910;-74
2022/03/05 03:18:56;;;;;;;;;;;25.70;99.90;;;;;;5015244;28;20383;-73
2022/03/05 03:21:22;;;;;;;;;;;25.70;99.90;;;;;;5015074;28;19909;-73
2022/03/05 03:23:49;;;;;;;;;;;25.60;99.90;;;;;;5014847;28;19915;-74
2022/03/05 03:26:15;;;;;;;;;;;25.60;99.90;;;;;;5015292;28;19925;-73
2022/03/05 03:28:42;;;;;;;;;;;25.60;99.90;;;;;;5015029;28;20359;-72
2022/03/05 03:31:09;;;;;;;;;;;25.60;99.90;;;;;;5014688;28;19914;-72
2022/03/05 03:33:35;;;;;;;;;;;25.60;99.90;;;;;;5014823;28;19934;-72
2022/03/05 03:36:02;;;;;;;;;;;25.60;99.90;;;;;;5015008;28;19910;-73
2022/03/05 03:38:29;;;;;;;;;;;25.50;99.90;;;;;;5015193;28;19917;-73
2022/03/05 03:40:55;;;;;;;;;;;25.50;99.90;;;;;;5014996;28;19910;-73
2022/03/05 03:43:22;;;;;;;;;;;25.50;99.90;;;;;;5014982;28;20271;-73
2022/03/05 03:45:49;;;;;;;;;;;25.40;99.90;;;;;;5014941;28;19921;-73
2022/03/05 03:48:15;;;;;;;;;;;25.30;99.90;;;;;;5014650;28;19976;-73
2022/03/05 03:50:42;;;;;;;;;;;25.40;99.90;;;;;;5014664;28;19928;-73
2022/03/05 03:53:09;;;;;;;;;;;25.30;99.90;;;;;;5014632;28;19916;-73
2022/03/05 03:55:35;;;;;;;;;;;25.30;99.90;;;;;;5014446;28;19909;-73
2022/03/05 03:58:02;;;;;;;;;;;25.30;99.90;;;;;;5014494;28;19914;-73
2022/03/05 04:00:29;;;;;;;;;;;25.20;99.90;;;;;;5014580;28;20008;-73
2022/03/05 04:02:56;;;;;;;;;;;25.20;99.90;;;;;;5014637;28;19993;-73
2022/03/05 04:05:22;;;;;;;;;;;25.20;99.90;;;;;;5014365;28;20417;-73
2022/03/05 04:10:33;;;;;;;;;;;25.20;99.90;;;;;;5014225;28;19920;-73
2022/03/05 04:13:00;;;;;;;;;;;25.20;99.90;;;;;;5014137;28;19909;-73
2022/03/05 04:15:27;;;;;;;;;;;25.10;99.90;;;;;;5014201;28;19909;-73
2022/03/05 04:17:53;;;;;;;;;;;25.20;99.90;;;;;;5014128;28;19910;-73
2022/03/05 04:20:20;;;;;;;;;;;25.30;99.90;;;;;;5013281;28;19920;-73
2022/03/05 04:22:47;;;;;;;;;;;25.40;99.90;;;;;;5015299;28;19936;-72
2022/03/05 04:25:13;;;;;;;;;;;25.50;99.90;;;;;;5014408;28;19917;-72
2022/03/05 04:27:40;;;;;;;;;;;25.50;99.90;;;;;;5014619;28;19952;-72
2022/03/05 04:30:07;;;;;;;;;;;25.60;99.90;;;;;;5015206;28;19909;-73
2022/03/05 04:32:34;;;;;;;;;;;25.60;99.90;;;;;;5014098;28;19913;-74
2022/03/05 04:35:01;;;;;;;;;;;25.50;99.90;;;;;;5013863;28;20364;-74
2022/03/05 04:37:27;;;;;;;;;;;25.60;99.90;;;;;;5014323;28;19959;-74
2022/03/05 04:39:54;;;;;;;;;;;25.60;99.90;;;;;;5013735;28;20391;-73
2022/03/05 04:42:21;;;;;;;;;;;25.60;99.90;;;;;;5013758;28;19916;-74
2022/03/05 04:44:47;;;;;;;;;;;25.60;99.90;;;;;;5013492;28;19916;-74
2022/03/05 04:47:14;;;;;;;;;;;25.60;99.90;;;;;;4996355;28;19917;-74
2022/03/05 04:49:40;;;;;;;;;;;25.50;99.90;;;;;;5013374;28;19910;-73
2022/03/05 04:52:07;;;;;;;;;;;25.50;99.90;;;;;;5013385;28;19959;-72
2022/03/05 04:54:34;;;;;;;;;;;25.50;99.90;;;;;;5013771;28;20279;-73
2022/03/05 04:57:01;;;;;;;;;;;25.50;99.90;;;;;;4995865;28;19932;-72
2022/03/05 04:59:27;;;;;;;;;;;25.60;99.90;;;;;;5013167;28;19968;-73
2022/03/05 05:01:56;;;;;;;;;;;25.70;99.90;;;;;;5013323;28;19936;-74
2022/03/05 05:04:23;;;;;;;;;;;25.60;99.90;;;;;;5013333;28;19916;-72
2022/03/05 05:06:49;;;;;;;;;;;25.60;99.90;;;;;;5013246;28;20275;-72
2022/03/05 05:09:19;;;;;;;;;;;25.50;99.90;;;;;;5012589;28;20258;-73
2022/03/05 05:11:46;;;;;;;;;;;25.40;99.90;;;;;;5010669;28;19910;-73
2022/03/05 05:14:13;;;;;;;;;;;25.30;99.90;;;;;;5012660;28;19915;-73
2022/03/05 05:16:40;;;;;;;;;;;25.30;99.90;;;;;;5013023;28;20012;-72
2022/03/05 05:19:25;;;;;;;;;;;25.30;99.90;;;;;;5013403;28;19909;-73
2022/03/05 05:21:56;;;;;;;;;;;25.40;99.90;;;;;;5011600;28;19913;-73
2022/03/05 05:24:24;;;;;;;;;;;25.30;99.90;;;;;;5013013;28;19917;-73
2022/03/05 05:26:51;;;;;;;;;;;25.20;99.90;;;;;;5013130;28;19971;-73
2022/03/05 05:29:18;;;;;;;;;;;25.20;99.90;;;;;;5012399;28;19909;-72
2022/03/05 05:31:44;;;;;;;;;;;25.10;99.90;;;;;;5012775;28;19955;-74
2022/03/05 05:34:11;;;;;;;;;;;25.10;99.90;;;;;;5012903;28;20016;-73
2022/03/05 05:36:38;;;;;;;;;;;25.00;99.90;;;;;;5012903;28;20382;-73
2022/03/05 05:39:06;;;;;;;;;;;25.10;99.90;;;;;;5013107;28;19914;-72
2022/03/05 05:41:33;;;;;;;;;;;25.10;99.90;;;;;;5012657;28;19910;-73
2022/03/05 05:43:59;;;;;;;;;;;25.10;99.90;;;;;;5012335;28;19909;-73
2022/03/05 05:46:26;;;;;;;;;;;25.10;99.90;;;;;;5012786;28;20045;-73
2022/03/05 05:48:53;;;;;;;;;;;25.20;99.90;;;;;;5012632;28;20348;-73
2022/03/05 05:51:20;;;;;;;;;;;25.20;99.90;;;;;;5012459;28;19909;-72
2022/03/05 05:53:46;;;;;;;;;;;25.20;99.90;;;;;;5012373;28;19916;-72
2022/03/05 05:56:13;;;;;;;;;;;25.20;99.90;;;;;;5012859;28;20044;-72
2022/03/05 05:58:40;;;;;;;;;;;25.20;99.90;;;;;;5012033;28;19921;-72
2022/03/05 06:01:06;;;;;;;;;;;25.30;99.90;;;;;;5012447;28;19917;-72
2022/03/05 06:03:33;;;;;;;;;;;25.20;99.90;;;;;;5012266;28;19917;-73
2022/03/05 06:06:00;;;;;;;;;;;25.30;99.90;;;;;;5012281;28;19969;-72
2022/03/05 06:08:27;;;;;;;;;;;25.30;99.90;;;;;;5012493;28;19916;-73
2022/03/05 06:10:54;;;;;;;;;;;25.30;99.90;;;;;;5010143;28;20280;-73
2022/03/05 06:13:21;;;;;;;;;;;25.30;99.90;;;;;;5012074;28;19912;-74
2022/03/05 06:15:48;;;;;;;;;;;25.40;99.90;;;;;;5012501;28;19917;-74
2022/03/05 06:18:14;;;;;;;;;;;25.40;99.90;;;;;;5012671;28;19948;-73
2022/03/05 06:20:41;;;;;;;;;;;25.40;99.90;;;;;;5012458;28;19909;-72
2022/03/05 06:23:08;;;;;;;;;;;25.40;99.90;;;;;;5012587;28;20285;-73
2022/03/05 06:25:34;;;;;;;;;;;25.30;99.90;;;;;;5012071;28;20337;-73
2022/03/05 06:28:01;;;;;;;;;;;25.30;99.90;;;;;;5012377;28;19913;-73
2022/03/05 06:30:28;;;;;;;;;;;25.20;99.90;;;;;;5012600;28;19910;-72
2022/03/05 06:32:54;;;;;;;;;;;25.10;99.90;;;;;;5012172;28;19916;-72
2022/03/05 06:35:21;;;;;;;;;;;25.00;99.90;;;;;;5012231;28;19909;-73
2022/03/05 06:37:48;;;;;;;;;;;24.90;99.90;;;;;;5012372;28;20368;-73
2022/03/05 06:40:14;;;;;;;;;;;24.80;99.90;;;;;;5012292;28;19913;-74
2022/03/05 06:42:41;;;;;;;;;;;24.80;99.90;;;;;;5012713;28;19985;-73
2022/03/05 06:45:08;;;;;;;;;;;24.70;99.90;;;;;;5015877;28;20063;-72
2022/03/05 06:47:36;;;;;;;;;;;24.70;99.90;;;;;;5015731;28;20376;-73
2022/03/05 06:50:03;;;;;;;;;;;24.60;99.90;;;;;;5015719;28;19909;-73
2022/03/05 06:52:30;;;;;;;;;;;24.70;99.90;;;;;;5015771;28;19909;-73
2022/03/05 06:54:57;;;;;;;;;;;24.70;99.90;;;;;;5015912;28;19917;-73
2022/03/05 06:57:24;;;;;;;;;;;24.70;99.90;;;;;;5015828;28;19918;-73
2022/03/05 06:59:51;;;;;;;;;;;24.60;99.90;;;;;;5015448;28;19925;-72
2022/03/05 07:02:18;;;;;;;;;;;24.60;99.90;;;;;;5015461;28;19913;-72
2022/03/05 07:04:44;;;;;;;;;;;24.50;99.90;;;;;;5015310;28;19909;-73
2022/03/05 07:07:11;;;;;;;;;;;24.60;99.90;;;;;;5015577;28;19917;-72
2022/03/05 07:09:41;;;;;;;;;;;24.50;99.90;;;;;;5015252;28;19986;-73
2022/03/05 07:12:09;;;;;;;;;;;24.40;99.90;;;;;;5015608;28;19917;-73
2022/03/05 07:14:36;;;;;;;;;;;24.50;99.90;;;;;;5015270;28;19916;-72
2022/03/05 07:17:03;;;;;;;;;;;24.40;99.90;;;;;;5015377;28;20016;-72
2022/03/05 07:19:30;;;;;;;;;;;24.30;99.90;;;;;;5015236;28;19909;-73
2022/03/05 07:21:57;;;;;;;;;;;24.30;99.90;;;;;;5015341;28;19956;-72
2022/03/05 07:24:23;;;;;;;;;;;24.30;99.90;;;;;;5015107;28;19914;-72
2022/03/05 07:26:50;;;;;;;;;;;24.30;99.90;;;;;;5015421;28;19917;-72
2022/03/05 07:29:16;;;;;;;;;;;24.30;99.90;;;;;;5015122;28;19909;-72
2022/03/05 07:31:43;;;;;;;;;;;24.20;99.90;;;;;;5015098;28;20380;-72
2022/03/05 07:34:10;;;;;;;;;;;24.20;99.90;;;;;;5015256;28;19914;-72
2022/03/05 07:36:37;;;;;;;;;;;24.10;99.90;;;;;;5014905;28;19910;-72
2022/03/05 07:39:04;;;;;;;;;;;24.20;99.90;;;;;;5015277;28;19914;-73
2022/03/05 07:41:30;;;;;;;;;;;24.10;99.90;;;;;;5015130;28;20264;-73
2022/03/05 07:43:57;;;;;;;;;;;24.10;99.90;;;;;;5014494;28;19931;-72
2022/03/05 07:46:24;;;;;;;;;;;24.00;99.90;;;;;;5014670;28;20055;-74
2022/03/05 07:48:50;;;;;;;;;;;24.00;99.90;;;;;;5014661;28;20322;-74
2022/03/05 07:51:17;;;;;;;;;;;24.00;99.90;;;;;;5014337;28;20359;-72
2022/03/05 07:53:44;;;;;;;;;;;24.00;99.90;;;;;;5013789;28;20015;-74
2022/03/05 07:56:10;;;;;;;;;;;24.00;99.90;;;;;;5013368;28;19932;-72
2022/03/05 07:58:37;;;;;;;;;;;24.00;99.90;;;;;;5014612;28;19926;-72
2022/03/05 08:01:04;;;;;;;;;;;24.00;99.90;;;;;;5014709;28;19920;-74
2022/03/05 08:03:30;;;;;;;;;;;24.00;99.90;;;;;;5014224;28;19909;-73
2022/03/05 08:05:57;;;;;;;;;;;23.90;99.90;;;;;;5014432;28;19968;-73
2022/03/05 08:08:24;;;;;;;;;;;23.90;99.90;;;;;;5014549;28;19918;-73
2022/03/05 08:10:50;;;;;;;;;;;23.90;99.90;;;;;;5014281;28;19917;-73
2022/03/05 08:13:17;;;;;;;;;;;23.90;99.90;;;;;;5014352;28;20272;-73
2022/03/05 08:15:44;;;;;;;;;;;23.80;99.90;;;;;;5014034;28;19920;-73
2022/03/05 08:18:10;;;;;;;;;;;23.90;99.90;;;;;;5014300;28;19916;-73
2022/03/05 08:20:37;;;;;;;;;;;23.90;99.90;;;;;;5014100;28;19924;-73
2022/03/05 08:23:04;;;;;;;;;;;23.90;99.90;;;;;;5014302;28;20320;-73
2022/03/05 08:25:30;;;;;;;;;;;23.90;99.90;;;;;;5013886;28;19909;-73
2022/03/05 08:27:57;;;;;;;;;;;23.90;99.90;;;;;;5014149;28;20323;-73
2022/03/05 08:30:24;;;;;;;;;;;23.90;99.90;;;;;;5014083;28;20011;-73
2022/03/05 08:32:51;;;;;;;;;;;23.80;99.90;;;;;;5013929;28;19909;-73
2022/03/05 08:35:19;;;;;;;;;;;23.80;99.90;;;;;;5013790;28;19910;-73
2022/03/05 08:37:46;;;;;;;;;;;23.80;99.90;;;;;;5013680;28;19941;-74
2022/03/05 08:40:14;;;;;;;;;;;23.80;99.90;;;;;;5013861;28;20357;-74
2022/03/05 08:42:42;;;;;;;;;;;23.80;99.90;;;;;;5013918;28;20380;-72
2022/03/05 08:45:09;;;;;;;;;;;23.80;99.90;;;;;;5013608;28;19909;-73
2022/03/05 08:47:36;;;;;;;;;;;23.70;99.90;;;;;;5013430;28;20778;-74
2022/03/05 08:50:03;;;;;;;;;;;23.70;99.90;;;;;;5013494;28;19964;-73
2022/03/05 08:52:35;;;;;;;;;;;23.70;99.90;;;;;;5013620;28;19916;-73
2022/03/05 08:55:07;;;;;;;;;;;23.70;99.90;;;;;;5013633;28;20016;-74
2022/03/05 08:57:33;;;;;;;;;;;23.70;99.90;;;;;;5013310;28;19952;-74
2022/03/05 09:00:00;;;;;;;;;;;23.70;99.90;;;;;;5013547;28;20106;-73
2022/03/05 09:02:27;;;;;;;;;;;23.70;99.90;;;;;;5013589;28;19932;-74
2022/03/05 09:04:53;;;;;;;;;;;23.70;99.90;;;;;;5013274;28;20371;-74
2022/03/05 09:07:20;;;;;;;;;;;23.70;99.90;;;;;;5012877;28;19952;-74
2022/03/05 09:09:47;;;;;;;;;;;23.70;99.90;;;;;;5013037;28;19944;-73
2022/03/05 09:12:13;;;;;;;;;;;23.70;99.90;;;;;;5013235;28;19913;-73
2022/03/05 09:14:40;;;;;;;;;;;23.70;99.90;;;;;;5013433;28;19909;-73
2022/03/05 09:17:07;;;;;;;;;;;23.70;99.90;;;;;;5013520;28;19909;-74
2022/03/05 09:19:33;;;;;;;;;;;23.70;99.90;;;;;;5012632;28;20371;-73
2022/03/05 09:22:00;;;;;;;;;;;23.70;99.90;;;;;;5013010;28;20391;-73
2022/03/05 09:24:27;;;;;;;;;;;23.70;99.90;;;;;;5013121;28;19916;-72
2022/03/05 09:26:53;;;;;;;;;;;23.70;99.90;;;;;;5013086;28;20371;-73
2022/03/05 09:29:20;;;;;;;;;;;23.70;99.90;;;;;;5013292;28;19910;-73
2022/03/05 09:31:46;;;;;;;;;;;23.70;99.90;;;;;;5012967;28;19910;-73
2022/03/05 09:34:13;;;;;;;;;;;23.70;99.90;;;;;;5012669;28;19914;-74
2022/03/05 09:36:40;;;;;;;;;;;23.70;99.90;;;;;;5012819;28;20008;-74
2022/03/05 09:39:07;;;;;;;;;;;23.70;99.90;;;;;;5012833;28;20423;-74
2022/03/05 09:41:33;;;;;;;;;;;23.70;99.90;;;;;;5012669;28;19913;-72
2022/03/05 09:44:00;;;;;;;;;;;23.70;99.90;;;;;;5012833;28;19949;-74
2022/03/05 09:46:27;;;;;;;;;;;23.70;99.90;;;;;;5012760;28;19914;-73
2022/03/05 09:48:54;;;;;;;;;;;23.70;99.90;;;;;;5012935;28;19921;-73
2022/03/05 09:51:23;;;;;;;;;;;23.70;99.90;;;;;;5012688;28;19910;-73
2022/03/05 09:53:53;;;;;;;;;;;23.70;99.90;;;;;;5012462;28;20343;-73
2022/03/05 09:56:20;;;;;;;;;;;23.60;99.90;;;;;;5012828;28;19916;-73
2022/03/05 09:58:48;;;;;;;;;;;23.60;99.90;;;;;;5012499;28;19917;-73
2022/03/05 10:01:15;;;;;;;;;;;23.60;99.90;;;;;;5012646;28;19916;-73
2022/03/05 10:03:45;;;;;;;;;;;23.60;99.90;;;;;;5012225;28;19920;-73
2022/03/05 10:06:18;;;;;;;;;;;23.60;99.90;;;;;;5012620;28;19924;-72
2022/03/05 10:08:46;;;;;;;;;;;23.60;99.90;;;;;;5012669;28;19910;-72
2022/03/05 10:11:14;;;;;;;;;;;23.60;99.90;;;;;;5012633;28;19960;-72
2022/03/05 10:13:42;;;;;;;;;;;23.60;99.90;;;;;;5012572;28;19909;-74
2022/03/05 10:16:28;;;;;;;;;;;23.60;99.90;;;;;;5012700;28;20001;-73
2022/03/05 10:18:56;;;;;;;;;;;23.60;99.90;;;;;;5014731;28;19909;-74
2022/03/05 10:21:30;;;;;;;;;;;23.60;99.90;;;;;;5016209;28;20275;-74
2022/03/05 10:24:08;;;;;;;;;;;23.60;99.90;;;;;;5016174;28;19909;-73
2022/03/05 10:26:53;;;;;;;;;;;23.60;99.90;;;;;;5016381;28;20439;-72
2022/03/05 10:29:24;;;;;;;;;;;23.60;99.90;;;;;;5016485;28;19910;-73
2022/03/05 10:31:55;;;;;;;;;;;23.60;99.90;;;;;;5016226;28;19909;-73
2022/03/05 10:34:22;;;;;;;;;;;23.60;99.90;;;;;;5016200;28;19910;-73
2022/03/05 10:37:06;;;;;;;;;;;23.60;99.90;;;;;;5016271;28;20370;-73
2022/03/05 10:39:33;;;;;;;;;;;23.60;99.90;;;;;;5016163;28;19924;-74
2022/03/05 10:42:00;;;;;;;;;;;23.60;99.90;;;;;;5016330;28;19916;-74
2022/03/05 10:44:27;;;;;;;;;;;23.60;99.90;;;;;;5016258;28;19924;-74
2022/03/05 10:47:01;;;;;;;;;;;23.50;99.90;;;;;;5016020;28;19921;-74
2022/03/05 10:49:31;;;;;;;;;;;23.60;99.90;;;;;;5016103;28;19909;-74
2022/03/05 10:52:00;;;;;;;;;;;23.60;99.90;;;;;;5015973;28;19916;-74
2022/03/05 10:54:31;;;;;;;;;;;23.60;99.90;;;;;;5015815;28;19963;-73
2022/03/05 10:57:06;;;;;;;;;;;23.60;99.90;;;;;;5016005;28;19953;-73
2022/03/05 10:59:37;;;;;;;;;;;23.60;99.90;;;;;;5015539;28;19921;-73
2022/03/05 11:02:03;;;;;;;;;;;23.60;99.90;;;;;;5015791;28;20240;-76
2022/03/05 11:04:31;;;;;;;;;;;23.60;99.90;;;;;;5015797;28;19909;-73
2022/03/05 11:06:58;;;;;;;;;;;23.50;99.90;;;;;;5015808;28;20004;-73
2022/03/05 11:09:26;;;;;;;;;;;23.60;99.90;;;;;;5015585;28;19909;-73
2022/03/05 11:11:53;;;;;;;;;;;23.50;99.90;;;;;;5015456;28;19909;-74
2022/03/05 11:14:20;;;;;;;;;;;23.60;99.90;;;;;;5015618;28;19910;-74
2022/03/05 11:16:46;;;;;;;;;;;23.50;99.90;;;;;;5015392;28;20278;-74
2022/03/05 11:19:14;;;;;;;;;;;23.50;99.90;;;;;;5015599;28;19996;-74
2022/03/05 11:21:41;;;;;;;;;;;23.50;99.90;;;;;;5015567;28;19913;-74
2022/03/05 11:24:08;;;;;;;;;;;23.50;99.90;;;;;;5015342;28;20360;-75
2022/03/05 11:26:37;;;;;;;;;;;23.50;99.90;;;;;;5015268;28;19936;-74
2022/03/05 11:29:03;;;;;;;;;;;23.50;99.90;;;;;;5014899;28;19914;-74
2022/03/05 11:31:32;;;;;;;;;;;23.50;99.90;;;;;;5015134;28;20351;-74
2022/03/05 11:34:13;;;;;;;;;;;23.40;99.90;;;;;;5014997;28;19910;-74
2022/03/05 11:36:41;;;;;;;;;;;23.50;99.90;;;;;;5015188;28;19909;-75
2022/03/05 11:39:43;;;;;;;;;;;23.50;99.90;;;;;;5015221;28;19910;-74
2022/03/05 11:42:09;;;;;;;;;;;23.50;99.90;;;;;;4935498;29;19910;-74
2022/03/05 11:44:43;;;;;;;;;;;23.60;99.90;;;;;;4999188;28;19910;-74
2022/03/05 11:47:20;;;;;;;;;;;23.60;99.90;;;;;;5014973;28;19918;-74
2022/03/05 11:49:59;;;;;;;;;;;23.60;99.90;;;;;;5014403;28;19910;-74
2022/03/05 11:52:41;;;;;;;;;;;23.60;99.90;;;;;;5014798;28;19972;-74
2022/03/05 11:55:24;;;;;;;;;;;23.60;99.90;;;;;;5014721;28;20004;-74
2022/03/05 11:57:53;;;;;;;;;;;23.60;99.90;;;;;;5014696;28;20356;-74
2022/03/05 12:00:20;;;;;;;;;;;23.60;99.90;;;;;;5014977;28;19923;-72
2022/03/05 12:02:50;;;;;;;;;;;23.20;99.90;;;;;;5014895;28;19910;-73
2022/03/05 12:05:35;;;;;;;;;;;22.90;99.90;;;;;;5014670;28;20423;-72
2022/03/05 12:08:01;;;;;;;;;;;22.80;99.90;;;;;;5014556;28;19917;-73
2022/03/05 12:10:28;;;;;;;;;;;22.80;99.90;;;;;;5014505;28;19917;-72
2022/03/05 12:12:58;;;;;;;;;;;22.70;99.90;;;;;;5014613;28;19984;-73
2022/03/05 12:15:28;;;;;;;;;;;22.50;99.90;;;;;;5014547;28;19952;-72
2022/03/05 12:17:55;;;;;;;;;;;22.30;99.90;;;;;;5014168;28;20201;-72
2022/03/05 12:20:27;;;;;;;;;;;22.20;99.90;;;;;;5014438;28;19910;-72
2022/03/05 12:22:58;;;;;;;;;;;22.20;99.90;;;;;;5014679;28;19945;-73
2022/03/05 12:25:26;;;;;;;;;;;22.20;99.90;;;;;;5014602;28;20451;-73
2022/03/05 12:27:53;;;;;;;;;;;22.00;99.90;;;;;;5014099;28;20280;-73
2022/03/05 12:30:22;;;;;;;;;;;22.00;99.90;;;;;;5014265;28;19917;-73
2022/03/05 12:32:48;;;;;;;;;;;21.80;99.90;;;;;;5013922;28;20442;-74
2022/03/05 12:35:19;;;;;;;;;;;21.60;99.90;;;;;;5013925;28;19917;-74
2022/03/05 12:37:46;;;;;;;;;;;21.40;99.90;;;;;;5013720;28;19917;-75
2022/03/05 12:40:13;;;;;;;;;;;21.30;99.90;;;;;;5013487;28;20008;-73
2022/03/05 12:42:47;;;;;;;;;;;21.20;99.90;;;;;;5013755;28;19909;-75
2022/03/05 12:45:18;;;;;;;;;;;21.00;99.90;;;;;;5013856;28;19913;-75
2022/03/05 12:47:44;;;;;;;;;;;20.90;99.90;;;;;;5013606;28;19971;-74
2022/03/05 12:50:21;;;;;;;;;;;20.90;99.90;;;;;;5013753;28;19914;-74
2022/03/05 12:52:55;;;;;;;;;;;20.80;99.90;;;;;;5013771;28;19916;-73
2022/03/05 12:55:21;;;;;;;;;;;20.80;99.90;;;;;;5013605;28;19964;-74
2022/03/05 12:57:48;;;;;;;;;;;20.70;99.90;;;;;;5013296;28;19910;-74
2022/03/05 13:00:15;;;;;;;;;;;20.70;99.90;;;;;;5013801;28;19918;-71
2022/03/05 13:02:41;;;;;;;;;;;20.50;99.90;;;;;;5013437;28;20419;-73
2022/03/05 13:05:14;;;;;;;;;;;20.50;99.90;;;;;;5013532;28;19997;-73
2022/03/05 13:07:41;;;;;;;;;;;20.50;99.90;;;;;;5013261;28;20283;-72
2022/03/05 13:10:09;;;;;;;;;;;20.50;99.90;;;;;;5013459;28;19917;-75
2022/03/05 13:12:36;;;;;;;;;;;20.40;99.90;;;;;;5013420;28;19916;-75
2022/03/05 13:15:03;;;;;;;;;;;20.40;99.90;;;;;;5013542;28;19909;-75
2022/03/05 13:17:30;;;;;;;;;;;20.40;99.90;;;;;;5013469;28;19913;-75
2022/03/05 13:19:58;;;;;;;;;;;20.40;99.90;;;;;;5013144;28;19909;-74
2022/03/05 13:22:25;;;;;;;;;;;20.50;99.90;;;;;;5013308;28;19910;-76
2022/03/05 13:24:52;;;;;;;;;;;20.50;99.90;;;;;;5013211;28;19971;-75
2022/03/05 13:27:28;;;;;;;;;;;20.50;99.90;;;;;;5013334;28;19917;-74
2022/03/05 13:29:55;;;;;;;;;;;20.40;99.90;;;;;;5013158;28;19910;-74
2022/03/05 13:32:24;;;;;;;;;;;20.50;99.90;;;;;;5012947;28;19909;-75
2022/03/05 13:35:17;;;;;;;;;;;20.50;99.90;;;;;;5013100;28;20351;-75
2022/03/05 13:37:47;;;;;;;;;;;20.50;99.90;;;;;;5009469;28;20039;-74
2022/03/05 13:40:15;;;;;;;;;;;20.50;99.90;;;;;;5012924;28;20007;-74
2022/03/05 13:42:45;;;;;;;;;;;20.40;99.90;;;;;;5013029;28;19917;-74
2022/03/05 13:45:13;;;;;;;;;;;20.40;99.90;;;;;;5012877;28;19987;-76
2022/03/05 13:47:41;;;;;;;;;;;20.40;99.90;;;;;;5012748;28;20307;-74
2022/03/05 13:50:09;;;;;;;;;;;20.40;99.90;;;;;;5012985;28;19909;-74
2022/03/05 13:52:36;;;;;;;;;;;20.40;99.90;;;;;;5013006;28;19910;-73
2022/03/05 13:55:17;;;;;;;;;;;20.40;99.90;;;;;;5012897;28;20323;-73
2022/03/05 13:57:45;;;;;;;;;;;20.40;99.90;;;;;;5012577;28;19960;-75
2022/03/05 14:00:16;;;;;;;;;;;20.40;99.90;;;;;;5012963;28;20395;-75
2022/03/05 14:02:43;;;;;;;;;;;20.50;99.90;;;;;;5012753;28;19909;-74
2022/03/05 14:05:10;;;;;;;;;;;20.50;99.90;;;;;;5012862;28;19992;-74
2022/03/05 14:07:38;;;;;;;;;;;20.60;99.90;;;;;;5012419;28;19918;-73
2022/03/05 14:10:05;;;;;;;;;;;20.60;99.90;;;;;;5012835;28;20386;-74
2022/03/05 14:12:32;;;;;;;;;;;20.60;99.90;;;;;;5012709;28;19916;-74
2022/03/05 14:15:02;;;;;;;;;;;20.60;99.90;;;;;;5012612;28;19992;-74
2022/03/05 14:17:40;;;;;;;;;;;20.50;99.90;;;;;;5012179;28;19917;-75
2022/03/05 14:20:20;;;;;;;;;;;20.40;99.90;;;;;;5012500;28;20338;-75
2022/03/05 14:22:53;;;;;;;;;;;20.40;99.90;;;;;;5012586;28;19910;-74